createdAt,value
2022-11-12T00:01:33.466Z,101847.00
2022-11-12T00:04:37.669Z,101845.22
2022-11-12T00:07:42.690Z,101847.84
2022-11-12T00:10:47.277Z,101843.44
2022-11-12T00:13:51.700Z,101842.59
2022-11-12T00:16:55.941Z,101840.81
2022-11-12T00:20:00.248Z,101839.09
2022-11-12T00:23:04.808Z,101834.72
2022-11-12T00:26:09.293Z,101837.34
2022-11-12T00:29:13.483Z,101832.97
2022-11-12T00:32:18.287Z,101835.59
2022-11-12T00:35:22.447Z,101834.72
2022-11-12T00:38:26.989Z,101831.25
2022-11-12T00:41:31.463Z,101834.72
2022-11-12T00:44:35.562Z,101830.34
2022-11-12T00:47:39.980Z,101837.34
2022-11-12T00:50:44.279Z,101830.34
2022-11-12T00:53:49.342Z,101832.97
2022-11-12T00:56:53.641Z,101834.72
2022-11-12T00:59:58.157Z,101838.19
2022-11-12T01:03:02.459Z,101832.97
2022-11-12T01:06:12.846Z,101832.09
2022-11-12T01:09:16.867Z,101832.09
2022-11-12T01:12:21.270Z,101831.19
2022-11-12T01:15:25.873Z,101826.84
2022-11-12T01:18:30.429Z,101823.31
2022-11-12T01:21:39.516Z,101818.91
2022-11-12T01:24:43.612Z,101811.03
2022-11-12T01:27:47.855Z,101814.50
2022-11-12T01:30:52.083Z,101816.19
2022-11-12T01:34:00.465Z,101815.25
2022-11-12T01:37:05.045Z,101823.09
2022-11-12T01:40:10.555Z,101812.63
2022-11-12T01:43:14.951Z,101812.63
2022-11-12T01:46:28.043Z,101808.25
2022-11-12T01:49:39.718Z,101814.38
2022-11-12T01:52:49.926Z,101826.63
2022-11-12T01:55:56.068Z,101832.75
2022-11-12T01:59:17.298Z,101820.56
2022-11-12T02:02:21.736Z,101817.09
2022-11-12T02:05:28.120Z,101822.34
2022-11-12T02:08:33.516Z,101821.44
2022-11-12T02:11:38.038Z,101829.38
2022-11-12T02:14:42.427Z,101827.63
2022-11-12T02:17:46.739Z,101825.84
2022-11-12T02:20:57.257Z,101824.06
2022-11-12T02:24:26.084Z,101815.34
2022-11-12T02:27:30.506Z,101819.72
2022-11-12T02:30:39.350Z,101820.59
2022-11-12T02:33:43.562Z,101817.97
2022-11-12T02:36:47.607Z,101820.59
2022-11-12T02:39:51.728Z,101818.03
2022-11-12T02:42:56.217Z,101809.34
2022-11-12T02:46:00.733Z,101810.22
2022-11-12T02:49:05.110Z,101803.22
2022-11-12T02:52:09.085Z,101790.16
2022-11-12T02:55:13.562Z,101791.00
2022-11-12T02:58:17.592Z,101782.28
2022-11-12T03:01:21.885Z,101780.53
2022-11-12T03:04:26.105Z,101771.84
2022-11-12T03:07:30.252Z,101772.75
2022-11-12T03:10:38.198Z,101762.25
2022-11-12T03:13:42.934Z,101761.31
2022-11-12T03:16:47.386Z,101751.69
2022-11-12T03:19:51.778Z,101764.78
2022-11-12T03:23:03.388Z,101761.28
2022-11-12T03:26:07.973Z,101763.88
2022-11-12T03:29:12.618Z,101759.50
2022-11-12T03:32:17.284Z,101755.13
2022-11-12T03:35:22.577Z,101769.94
2022-11-12T03:38:27.277Z,101770.78
2022-11-12T03:41:31.783Z,101770.78
2022-11-12T03:44:36.185Z,101769.00
2022-11-12T03:47:45.832Z,101771.53
2022-11-12T03:50:50.222Z,101774.16
2022-11-12T03:53:54.303Z,101773.28
2022-11-12T03:56:58.692Z,101770.59
2022-11-12T04:00:03.722Z,101776.75
2022-11-12T04:03:07.932Z,101783.72
2022-11-12T04:06:30.917Z,101783.69
2022-11-12T04:09:35.312Z,101784.59
2022-11-12T04:12:58.120Z,101787.25
2022-11-12T04:16:31.728Z,101788.16
2022-11-12T04:19:59.238Z,101797.75
2022-11-12T04:23:03.581Z,101796.06
2022-11-12T04:26:25.539Z,101799.53
2022-11-12T04:29:48.634Z,101796.06
2022-11-12T04:32:54.832Z,101783.81
2022-11-12T04:35:59.284Z,101783.88
2022-11-12T04:39:03.510Z,101792.59
2022-11-12T04:42:27.906Z,101787.38
2022-11-12T04:45:32.459Z,101795.22
2022-11-12T04:48:36.690Z,101801.31
2022-11-12T04:51:59.356Z,101805.69
2022-11-12T04:55:04.555Z,101803.94
2022-11-12T04:58:09.290Z,101797.81
2022-11-12T05:01:13.997Z,101802.16
2022-11-12T05:04:18.927Z,101795.16
2022-11-12T05:07:23.233Z,101802.13
2022-11-12T05:10:27.405Z,101805.63
2022-11-12T05:13:31.508Z,101798.66
2022-11-12T05:16:35.949Z,101801.28
2022-11-12T05:19:40.543Z,101798.66
2022-11-12T05:22:59.166Z,101801.28
2022-11-12T05:26:09.343Z,101797.75
2022-11-12T05:29:14.555Z,101797.75
2022-11-12T05:32:18.872Z,101802.13
2022-11-12T05:35:23.122Z,101796.03
2022-11-12T05:38:27.774Z,101803.00
2022-11-12T05:41:51.062Z,101789.03
2022-11-12T05:44:56.572Z,101796.03
2022-11-12T05:48:01.052Z,101799.50
2022-11-12T05:51:12.894Z,101806.50
2022-11-12T05:54:18.535Z,101799.50
2022-11-12T05:57:22.980Z,101802.13
2022-11-12T06:00:27.134Z,101791.66
2022-11-12T06:03:31.567Z,101787.25
2022-11-12T06:06:35.615Z,101788.13
2022-11-12T06:09:40.081Z,101792.50
2022-11-12T06:12:44.341Z,101772.41
2022-11-12T06:15:48.591Z,101775.91
2022-11-12T06:18:52.803Z,101780.22
2022-11-12T06:21:57.023Z,101788.09
2022-11-12T06:25:01.448Z,101785.47
2022-11-12T06:28:05.926Z,101784.63
2022-11-12T06:31:10.193Z,101771.53
2022-11-12T06:34:14.923Z,101773.25
2022-11-12T06:37:21.794Z,101778.47
2022-11-12T06:40:26.194Z,101785.44
2022-11-12T06:43:32.742Z,101787.16
2022-11-12T06:46:37.377Z,101790.66
2022-11-12T06:49:41.606Z,101790.66
2022-11-12T06:52:46.028Z,101784.53
2022-11-12T06:55:50.690Z,101780.19
2022-11-12T06:58:55.093Z,101783.66
2022-11-12T07:01:59.521Z,101776.66
2022-11-12T07:05:04.044Z,101791.47
2022-11-12T07:08:08.768Z,101780.09
2022-11-12T07:11:14.004Z,101787.97
2022-11-12T07:14:18.605Z,101787.97
2022-11-12T07:17:23.173Z,101789.72
2022-11-12T07:20:27.455Z,101792.34
2022-11-12T07:23:33.303Z,101800.19
2022-11-12T07:26:37.626Z,101806.28
2022-11-12T07:29:48.212Z,101813.28
2022-11-12T07:32:53.230Z,101820.22
2022-11-12T07:36:01.778Z,101828.97
2022-11-12T07:39:05.979Z,101824.59
2022-11-12T07:42:10.288Z,101834.19
2022-11-12T07:45:14.420Z,101827.19
2022-11-12T07:48:18.867Z,101828.06
2022-11-12T07:51:25.747Z,101836.81
2022-11-12T07:54:30.348Z,101836.81
2022-11-12T07:57:34.433Z,101849.00
2022-11-12T08:00:38.620Z,101849.91
2022-11-12T08:03:42.709Z,101849.88
2022-11-12T08:06:46.958Z,101849.88
2022-11-12T08:09:50.868Z,101848.09
2022-11-12T08:12:56.759Z,101841.09
2022-11-12T08:16:01.241Z,101844.56
2022-11-12T08:19:05.376Z,101847.16
2022-11-12T08:22:09.539Z,101841.00
2022-11-12T08:25:14.115Z,101847.09
2022-11-12T08:28:18.393Z,101853.19
2022-11-12T08:31:23.617Z,101857.50
2022-11-12T08:34:27.943Z,101867.06
2022-11-12T08:37:32.323Z,101867.94
2022-11-12T08:40:37.479Z,101880.16
2022-11-12T08:43:42.332Z,101896.69
2022-11-12T08:46:46.413Z,101897.59
2022-11-12T08:49:50.724Z,101892.38
2022-11-12T08:53:00.615Z,101893.22
2022-11-12T08:56:05.031Z,101891.47
2022-11-12T08:59:09.718Z,101884.47
2022-11-12T09:02:14.090Z,101892.31
2022-11-12T09:05:18.625Z,101888.84
2022-11-12T09:08:25.839Z,101885.41
2022-11-12T09:11:30.312Z,101895.06
2022-11-12T09:14:34.787Z,101893.31
2022-11-12T09:17:39.232Z,101878.56
2022-11-12T09:20:43.882Z,101882.94
2022-11-12T09:23:48.431Z,101880.31
2022-11-12T09:26:54.042Z,101880.38
2022-11-12T09:29:58.529Z,101875.97
2022-11-12T09:33:03.124Z,101880.38
2022-11-12T09:36:07.810Z,101878.63
2022-11-12T09:39:12.190Z,101891.78
2022-11-12T09:42:19.627Z,101872.56
2022-11-12T09:45:30.160Z,101879.56
2022-11-12T09:48:41.126Z,101886.56
2022-11-12T09:52:03.253Z,101892.66
2022-11-12T09:55:22.556Z,101891.81
2022-11-12T09:58:27.945Z,101890.97
2022-11-12T10:01:50.853Z,101884.81
2022-11-12T10:05:13.279Z,101887.47
2022-11-12T10:08:29.076Z,101888.38
2022-11-12T10:12:04.785Z,101886.63
2022-11-12T10:15:40.049Z,101889.28
2022-11-12T10:18:44.030Z,101884.09
2022-11-12T10:22:03.050Z,101880.66
2022-11-12T10:25:15.767Z,101874.53
2022-11-12T10:28:46.314Z,101881.53
2022-11-12T10:31:50.676Z,101881.53
2022-11-12T10:34:55.247Z,101874.59
2022-11-12T10:38:03.010Z,101879.91
2022-11-12T10:41:25.656Z,101876.47
2022-11-12T10:44:29.842Z,101869.63
2022-11-12T10:47:42.988Z,101873.13
2022-11-12T10:50:47.332Z,101858.34
2022-11-12T10:53:51.754Z,101861.06
2022-11-12T10:56:56.458Z,101843.56
2022-11-12T11:00:13.480Z,101838.31
2022-11-12T11:03:22.948Z,101829.59
2022-11-12T11:06:27.344Z,101825.19
2022-11-12T11:09:32.411Z,101830.44
2022-11-12T11:12:36.666Z,101830.50
2022-11-12T11:15:41.007Z,101821.75
2022-11-12T11:19:05.851Z,101830.53
2022-11-12T11:22:30.540Z,101820.91
2022-11-12T11:25:36.173Z,101817.41
2022-11-12T11:28:52.977Z,101813.88
2022-11-12T11:32:19.937Z,101799.91
2022-11-12T11:35:47.124Z,101790.22
2022-11-12T11:39:18.142Z,101789.38
2022-11-12T11:43:02.882Z,101784.13
2022-11-12T11:46:07.326Z,101782.34
2022-11-12T11:49:26.846Z,101770.97
2022-11-12T11:52:40.030Z,101768.34
2022-11-12T11:56:04.009Z,101762.22
2022-11-12T11:59:24.252Z,101760.47
2022-11-12T12:02:47.054Z,101756.13
2022-11-12T12:06:09.970Z,101752.59
2022-11-12T12:09:18.036Z,101750.00
2022-11-12T12:12:55.654Z,101751.72
2022-11-12T12:16:26.831Z,101739.47
2022-11-12T12:19:57.180Z,101728.06
2022-11-12T12:23:23.534Z,101725.31
2022-11-12T12:26:42.458Z,101713.91
2022-11-12T12:30:00.782Z,101709.44
2022-11-12T12:33:28.246Z,101714.69
2022-11-12T12:36:38.818Z,101719.22
2022-11-12T12:39:59.840Z,101700.88
2022-11-12T12:43:26.519Z,101700.94
2022-11-12T12:46:37.037Z,101707.13
2022-11-12T12:49:43.057Z,101705.41
2022-11-12T12:53:06.239Z,101706.31
2022-11-12T12:56:10.829Z,101707.19
2022-11-12T12:59:23.891Z,101707.16
2022-11-12T13:02:28.369Z,101699.34
2022-11-12T13:05:37.823Z,101699.31
2022-11-12T13:08:42.509Z,101684.44
2022-11-12T13:12:04.382Z,101679.09
2022-11-12T13:15:16.378Z,101669.38
2022-11-12T13:18:39.679Z,101673.69
2022-11-12T13:21:44.588Z,101667.56
2022-11-12T13:25:10.670Z,101656.22
2022-11-12T13:28:15.010Z,101661.50
2022-11-12T13:31:29.519Z,101655.44
2022-11-12T13:34:34.304Z,101658.97
2022-11-12T13:38:03.926Z,101668.66
2022-11-12T13:41:11.255Z,101671.28
2022-11-12T13:44:17.623Z,101678.31
2022-11-12T13:47:24.855Z,101676.56
2022-11-12T13:50:29.072Z,101680.09
2022-11-12T13:53:33.902Z,101685.31
2022-11-12T13:56:39.209Z,101684.47
2022-11-12T13:59:43.630Z,101685.34
2022-11-12T14:02:55.735Z,101671.34
2022-11-12T14:06:06.346Z,101678.34
2022-11-12T14:09:44.545Z,101666.09
2022-11-12T14:13:20.765Z,101655.59
2022-11-12T14:16:31.567Z,101651.19
2022-11-12T14:19:57.497Z,101649.44
2022-11-12T14:23:13.499Z,101650.31
2022-11-12T14:26:53.496Z,101655.56
2022-11-12T14:30:32.528Z,101647.69
2022-11-12T14:33:36.991Z,101648.56
2022-11-12T14:36:41.354Z,101651.16
2022-11-12T14:39:46.150Z,101643.31
2022-11-12T14:42:51.956Z,101645.94
2022-11-12T14:45:59.397Z,101635.44
2022-11-12T14:49:16.057Z,101631.06
2022-11-12T14:52:25.088Z,101632.81
2022-11-12T14:55:33.970Z,101618.81
2022-11-12T14:58:40.743Z,101618.81
2022-11-12T15:05:28.515Z,101619.66
2022-11-12T15:08:40.745Z,101617.03
2022-11-12T15:11:49.660Z,101619.63
2022-11-12T15:15:03.601Z,101619.63
2022-11-12T15:18:19.322Z,101607.41
2022-11-12T15:21:28.474Z,101608.28
2022-11-12T15:24:37.756Z,101603.06
2022-11-12T15:27:43.306Z,101587.34
2022-11-12T15:31:02.600Z,101596.06
2022-11-12T15:34:34.389Z,101574.25
2022-11-12T15:37:43.136Z,101579.47
2022-11-12T15:40:57.321Z,101559.41
2022-11-12T15:44:02.126Z,101562.88
2022-11-12T15:47:08.708Z,101562.03
2022-11-12T15:50:22.772Z,101563.78
2022-11-12T15:53:28.820Z,101570.72
2022-11-12T15:56:33.899Z,101568.97
2022-11-12T15:59:37.842Z,101562.88
2022-11-12T16:02:43.428Z,101574.22
2022-11-12T16:05:51.389Z,101572.47
2022-11-12T16:08:55.257Z,101584.69
2022-11-12T16:12:00.887Z,101571.59
2022-11-12T16:15:16.642Z,101584.66
2022-11-12T16:18:20.675Z,101576.81
2022-11-12T16:21:24.900Z,101579.41
2022-11-12T16:24:29.284Z,101574.16
2022-11-12T16:27:33.829Z,101568.03
2022-11-12T16:30:38.553Z,101566.28
2022-11-12T16:33:42.760Z,101559.28
2022-11-12T16:36:47.725Z,101569.75
2022-11-12T16:39:52.174Z,101568.03
2022-11-12T16:42:56.887Z,101566.28
2022-11-12T16:46:01.216Z,101572.41
2022-11-12T16:49:05.379Z,101575.03
2022-11-12T16:52:10.686Z,101577.66
2022-11-12T16:55:15.657Z,101576.75
2022-11-12T16:58:19.708Z,101575.88
2022-11-12T17:01:27.280Z,101576.75
2022-11-12T17:04:31.807Z,101572.38
2022-11-12T17:07:36.149Z,101588.06
2022-11-12T17:10:40.227Z,101582.84
2022-11-12T17:13:44.498Z,101568.91
2022-11-12T17:16:48.950Z,101572.41
2022-11-12T17:19:53.275Z,101575.91
2022-11-12T17:22:58.162Z,101582.03
2022-11-12T17:26:04.846Z,101576.81
2022-11-12T17:29:09.389Z,101589.91
2022-11-12T17:32:13.672Z,101576.81
2022-11-12T17:35:18.136Z,101580.28
2022-11-12T17:38:22.533Z,101580.28
2022-11-12T17:41:28.871Z,101582.06
2022-11-12T17:44:33.264Z,101579.44
2022-11-12T17:47:40.477Z,101582.03
2022-11-12T17:50:45.543Z,101592.53
2022-11-12T17:53:50.735Z,101588.16
2022-11-12T17:56:54.973Z,101591.66
2022-11-12T17:59:59.236Z,101589.91
2022-11-12T18:03:03.519Z,101590.75
2022-11-12T18:06:14.635Z,101589.84
2022-11-12T18:09:19.147Z,101592.47
2022-11-12T18:12:23.500Z,101588.06
2022-11-12T18:15:27.801Z,101579.34
2022-11-12T18:18:32.061Z,101587.13
2022-11-12T18:21:40.492Z,101584.50
2022-11-12T18:24:45.073Z,101579.25
2022-11-12T18:27:49.974Z,101574.03
2022-11-12T18:31:03.425Z,101578.44
2022-11-12T18:34:15.176Z,101579.34
2022-11-12T18:37:19.542Z,101575.00
2022-11-12T18:40:24.330Z,101575.00
2022-11-12T18:43:29.530Z,101572.38
2022-11-12T18:46:34.298Z,101566.28
2022-11-12T18:49:38.311Z,101564.53
2022-11-12T18:52:43.555Z,101560.13
2022-11-12T18:55:47.691Z,101561.91
2022-11-12T18:58:52.149Z,101570.63
2022-11-12T19:01:58.227Z,101574.13
2022-11-12T19:05:02.440Z,101578.50
2022-11-12T19:08:06.879Z,101572.38
2022-11-12T19:11:13.833Z,101569.81
2022-11-12T19:14:18.082Z,101568.91
2022-11-12T19:17:22.168Z,101555.88
2022-11-12T19:20:26.553Z,101560.22
2022-11-12T19:23:31.145Z,101567.22
2022-11-12T19:26:35.616Z,101555.88
2022-11-12T19:29:39.985Z,101555.00
2022-11-12T19:32:44.459Z,101556.75
2022-11-12T19:35:48.883Z,101557.63
2022-11-12T19:38:55.294Z,101558.50
2022-11-12T19:41:59.505Z,101568.97
2022-11-12T19:45:04.740Z,101558.50
2022-11-12T19:48:08.979Z,101562.00
2022-11-12T19:51:14.074Z,101554.16
2022-11-12T19:54:18.738Z,101566.41
2022-11-12T19:57:23.458Z,101567.25
2022-11-12T20:00:27.385Z,101575.97
2022-11-12T20:03:32.299Z,101563.78
2022-11-12T20:06:36.722Z,101563.78
2022-11-12T20:09:41.118Z,101558.50
2022-11-12T20:12:45.880Z,101552.38
2022-11-12T20:15:50.244Z,101534.03
2022-11-12T20:18:55.740Z,101524.41
2022-11-12T20:22:00.212Z,101524.41
2022-11-12T20:25:04.837Z,101513.03
2022-11-12T20:28:09.803Z,101511.25
2022-11-12T20:31:22.090Z,101515.63
2022-11-12T20:34:27.303Z,101517.31
2022-11-12T20:37:31.451Z,101524.31
2022-11-12T20:40:35.747Z,101525.16
2022-11-12T20:43:40.284Z,101526.00
2022-11-12T20:46:44.849Z,101526.81
2022-11-12T20:49:49.349Z,101521.69
2022-11-12T20:52:53.735Z,101520.00
2022-11-12T20:56:05.708Z,101527.84
2022-11-12T20:59:11.080Z,101516.50
2022-11-12T21:02:15.167Z,101529.56
2022-11-12T21:05:19.455Z,101513.88
2022-11-12T21:08:23.677Z,101525.16
2022-11-12T21:11:27.998Z,101515.50
2022-11-12T21:14:32.546Z,101523.34
2022-11-12T21:17:36.916Z,101517.25
2022-11-12T21:20:41.128Z,101526.81
2022-11-12T21:23:45.838Z,101521.56
2022-11-12T21:26:50.476Z,101525.94
2022-11-12T21:29:54.953Z,101520.75
2022-11-12T21:32:59.713Z,101522.53
2022-11-12T21:36:06.033Z,101519.03
2022-11-12T21:39:12.057Z,101516.44
2022-11-12T21:42:16.517Z,101518.13
2022-11-12T21:45:20.809Z,101527.72
2022-11-12T21:48:25.618Z,101526.91
2022-11-12T21:51:33.005Z,101520.75
2022-11-12T21:54:37.779Z,101506.81
2022-11-12T21:57:42.342Z,101503.28
2022-11-12T22:00:46.650Z,101501.50
2022-11-12T22:03:53.174Z,101492.81
2022-11-12T22:06:57.164Z,101496.31
2022-11-12T22:10:01.374Z,101492.00
2022-11-12T22:13:25.978Z,101478.03
2022-11-12T22:16:30.157Z,101472.84
2022-11-12T22:19:34.961Z,101469.31
2022-11-12T22:22:39.217Z,101450.19
2022-11-12T22:25:43.463Z,101451.06
2022-11-12T22:28:48.888Z,101456.28
2022-11-12T22:31:53.297Z,101451.97
2022-11-12T22:34:57.741Z,101446.72
2022-11-12T22:38:02.059Z,101435.38
2022-11-12T22:41:08.865Z,101442.34
2022-11-12T22:44:13.017Z,101439.72
2022-11-12T22:47:17.667Z,101428.38
2022-11-12T22:50:22.147Z,101429.28
2022-11-12T22:53:27.116Z,101432.75
2022-11-12T22:56:34.993Z,101430.13
2022-11-12T22:59:39.112Z,101411.81
2022-11-12T23:02:47.417Z,101411.81
2022-11-12T23:06:03.389Z,101406.59
2022-11-12T23:09:08.022Z,101396.97
2022-11-12T23:12:12.327Z,101398.72
2022-11-12T23:15:16.580Z,101407.47
2022-11-12T23:18:20.846Z,101399.63
2022-11-12T23:21:27.926Z,101375.19
2022-11-12T23:24:32.448Z,101380.41
2022-11-12T23:27:37.868Z,101376.94
2022-11-12T23:30:50.332Z,101374.28
2022-11-12T23:33:57.315Z,101377.81
2022-11-12T23:37:01.660Z,101370.81
2022-11-12T23:40:06.989Z,101369.06
2022-11-12T23:43:10.945Z,101367.28
2022-11-12T23:46:15.632Z,101375.13
2022-11-12T23:49:19.831Z,101369.88
2022-11-12T23:52:24.308Z,101362.91
2022-11-12T23:55:29.522Z,101358.53
2022-11-12T23:58:33.770Z,101362.88
